Amesbury, Massachusetts
Current Conditions -  °F | °C
As of 11:01 AM on Monday 26 Jan 2015 (Local Time) from KLWM Reporting Station
Light Snow Light Snow  
Wind Chill:   Ceiling: 1800
Heat Index: 15°   Visibility: 6mi
Dew Point:   Wind: 12mph
Humidity: 68%   Direction: 40°NE
Pressure: 30.16"   Gusts: NA
Location:  42.86°N, 70.93°W
Report Text: KLWM 261601Z 04010KT 6SM -SN OVC018 M09/M14 A3016 RMK AO2 SNB1555 P0000 T10941144
Loading
Personal Weather Stations






























Interactive Weather Map New forecast layout! Learn more

10-Day Weather Forecast

Advertisements
Track Severe Weather on mobile